sensor_id;sensor_type;location;lat;lon;timestamp;pressure;altitude;pressure_sealevel;temperature;humidity
64460;BME280;50828;53.756;21.140;2023-06-22T00:00:03;99888.19;;;23.18;55.72
64460;BME280;50828;53.756;21.140;2023-06-22T00:05:17;99889.95;;;23.18;55.78
64460;BME280;50828;53.756;21.140;2023-06-22T00:10:24;99881.02;;;23.15;55.90
64460;BME280;50828;53.756;21.140;2023-06-22T00:15:32;99865.52;;;23.16;56.04
64460;BME280;50828;53.756;21.140;2023-06-22T00:20:41;99863.21;;;23.16;56.31
64460;BME280;50828;53.756;21.140;2023-06-22T00:25:49;99855.81;;;23.16;56.27
64460;BME280;50828;53.756;21.140;2023-06-22T00:30:56;99861.17;;;23.17;56.65
64460;BME280;50828;53.756;21.140;2023-06-22T00:36:04;99871.78;;;23.16;56.62
64460;BME280;50828;53.756;21.140;2023-06-22T00:41:16;99869.02;;;23.13;56.95
64460;BME280;50828;53.756;21.140;2023-06-22T00:46:24;99861.13;;;23.12;56.95
64460;BME280;50828;53.756;21.140;2023-06-22T00:51:33;99870.29;;;23.07;57.17
64460;BME280;50828;53.756;21.140;2023-06-22T00:56:44;99875.30;;;23.02;57.33
64460;BME280;50828;53.756;21.140;2023-06-22T01:01:58;99868.02;;;22.99;57.48
64460;BME280;50828;53.756;21.140;2023-06-22T01:07:13;99875.66;;;22.96;57.76
64460;BME280;50828;53.756;21.140;2023-06-22T01:12:30;99881.77;;;22.95;57.92
64460;BME280;50828;53.756;21.140;2023-06-22T01:17:43;99894.41;;;22.92;58.11
64460;BME280;50828;53.756;21.140;2023-06-22T01:23:02;99878.44;;;22.90;58.35
64460;BME280;50828;53.756;21.140;2023-06-22T01:28:23;99880.67;;;22.90;58.19
64460;BME280;50828;53.756;21.140;2023-06-22T01:33:33;99877.98;;;22.90;58.19
64460;BME280;50828;53.756;21.140;2023-06-22T01:38:41;99873.56;;;22.90;58.33
64460;BME280;50828;53.756;21.140;2023-06-22T01:43:51;99864.09;;;22.89;58.51
64460;BME280;50828;53.756;21.140;2023-06-22T01:49:01;99859.02;;;22.88;58.82
64460;BME280;50828;53.756;21.140;2023-06-22T01:54:12;99858.64;;;22.84;59.09
64460;BME280;50828;53.756;21.140;2023-06-22T01:59:28;99855.84;;;22.82;59.42
64460;BME280;50828;53.756;21.140;2023-06-22T02:04:42;99858.98;;;22.77;59.86
64460;BME280;50828;53.756;21.140;2023-06-22T02:09:53;99865.88;;;22.73;59.92
64460;BME280;50828;53.756;21.140;2023-06-22T02:15:03;99876.44;;;22.67;60.24
64460;BME280;50828;53.756;21.140;2023-06-22T02:20:14;99875.48;;;22.62;60.62
64460;BME280;50828;53.756;21.140;2023-06-22T02:25:20;99875.80;;;22.57;60.63
64460;BME280;50828;53.756;21.140;2023-06-22T02:30:28;99876.77;;;22.49;61.06
64460;BME280;50828;53.756;21.140;2023-06-22T02:35:37;99895.18;;;22.45;61.16
64460;BME280;50828;53.756;21.140;2023-06-22T02:40:46;99906.23;;;22.41;61.65
64460;BME280;50828;53.756;21.140;2023-06-22T02:45:55;99912.07;;;22.35;61.79
64460;BME280;50828;53.756;21.140;2023-06-22T02:51:03;99917.16;;;22.31;61.90
64460;BME280;50828;53.756;21.140;2023-06-22T02:56:12;99920.11;;;22.26;61.89
64460;BME280;50828;53.756;21.140;2023-06-22T03:01:20;99915.73;;;22.21;61.97
64460;BME280;50828;53.756;21.140;2023-06-22T03:06:30;99914.22;;;22.15;62.07
64460;BME280;50828;53.756;21.140;2023-06-22T03:11:37;99908.04;;;22.10;62.18
64460;BME280;50828;53.756;21.140;2023-06-22T03:16:45;99908.95;;;22.08;62.27
64460;BME280;50828;53.756;21.140;2023-06-22T03:21:53;99899.59;;;22.05;62.12
64460;BME280;50828;53.756;21.140;2023-06-22T03:27:00;99896.15;;;22.02;62.22
64460;BME280;50828;53.756;21.140;2023-06-22T03:32:11;99902.91;;;21.98;62.41
64460;BME280;50828;53.756;21.140;2023-06-22T03:37:19;99911.02;;;21.96;62.41
64460;BME280;50828;53.756;21.140;2023-06-22T03:42:27;99923.09;;;21.93;62.49
64460;BME280;50828;53.756;21.140;2023-06-22T03:47:35;99933.98;;;21.92;62.56
64460;BME280;50828;53.756;21.140;2023-06-22T03:52:43;99943.41;;;21.90;62.68
64460;BME280;50828;53.756;21.140;2023-06-22T03:57:51;99946.33;;;21.90;62.75
64460;BME280;50828;53.756;21.140;2023-06-22T04:03:00;99952.27;;;21.90;62.78
64460;BME280;50828;53.756;21.140;2023-06-22T04:08:08;99950.40;;;21.88;62.88
64460;BME280;50828;53.756;21.140;2023-06-22T04:13:15;99954.27;;;21.89;62.96
64460;BME280;50828;53.756;21.140;2023-06-22T04:18:23;99964.16;;;21.91;63.17
64460;BME280;50828;53.756;21.140;2023-06-22T04:23:30;99967.05;;;21.95;63.30
64460;BME280;50828;53.756;21.140;2023-06-22T04:28:38;99975.88;;;22.00;63.41
64460;BME280;50828;53.756;21.140;2023-06-22T04:33:45;99973.02;;;22.06;63.37
64460;BME280;50828;53.756;21.140;2023-06-22T04:38:52;99972.69;;;22.12;63.43
64460;BME280;50828;53.756;21.140;2023-06-22T04:44:01;99966.32;;;22.16;63.27
64460;BME280;50828;53.756;21.140;2023-06-22T04:49:11;99974.08;;;22.22;63.14
64460;BME280;50828;53.756;21.140;2023-06-22T04:54:18;99976.04;;;22.28;63.33
64460;BME280;50828;53.756;21.140;2023-06-22T04:59:26;99971.83;;;22.35;63.24
64460;BME280;50828;53.756;21.140;2023-06-22T05:04:35;99972.40;;;22.41;63.22
64460;BME280;50828;53.756;21.140;2023-06-22T05:09:45;99969.95;;;22.46;63.08
64460;BME280;50828;53.756;21.140;2023-06-22T05:14:52;99967.95;;;22.52;62.99
64460;BME280;50828;53.756;21.140;2023-06-22T05:20:00;99964.91;;;22.58;62.76
64460;BME280;50828;53.756;21.140;2023-06-22T05:25:10;99972.52;;;22.61;62.49
64460;BME280;50828;53.756;21.140;2023-06-22T05:30:18;99974.59;;;22.64;62.41
64460;BME280;50828;53.756;21.140;2023-06-22T05:35:26;99978.83;;;22.66;62.09
64460;BME280;50828;53.756;21.140;2023-06-22T05:40:35;99979.86;;;22.70;61.92
64460;BME280;50828;53.756;21.140;2023-06-22T05:45:42;99986.43;;;22.75;61.82
64460;BME280;50828;53.756;21.140;2023-06-22T05:50:50;99991.14;;;22.77;61.66
64460;BME280;50828;53.756;21.140;2023-06-22T05:55:58;99995.42;;;22.77;61.38
64460;BME280;50828;53.756;21.140;2023-06-22T06:01:06;99998.13;;;22.79;61.32
64460;BME280;50828;53.756;21.140;2023-06-22T06:06:13;99995.64;;;22.80;61.43
64460;BME280;50828;53.756;21.140;2023-06-22T06:11:20;99985.19;;;22.75;61.12
64460;BME280;50828;53.756;21.140;2023-06-22T06:16:28;100003.31;;;22.83;60.99
64460;BME280;50828;53.756;21.140;2023-06-22T06:21:35;99998.72;;;22.84;60.85
64460;BME280;50828;53.756;21.140;2023-06-22T06:26:42;100005.50;;;22.86;60.84
64460;BME280;50828;53.756;21.140;2023-06-22T06:31:50;100010.45;;;22.89;60.63
64460;BME280;50828;53.756;21.140;2023-06-22T06:36:59;100016.59;;;22.90;60.70
64460;BME280;50828;53.756;21.140;2023-06-22T06:42:07;100030.85;;;22.91;60.65
64460;BME280;50828;53.756;21.140;2023-06-22T06:47:14;100030.31;;;22.92;60.55
64460;BME280;50828;53.756;21.140;2023-06-22T06:52:22;100034.23;;;22.92;60.58
64460;BME280;50828;53.756;21.140;2023-06-22T06:57:29;100033.01;;;22.91;60.70
64460;BME280;50828;53.756;21.140;2023-06-22T07:02:38;100042.26;;;22.89;60.66
64460;BME280;50828;53.756;21.140;2023-06-22T07:07:47;100039.75;;;22.83;60.77
64460;BME280;50828;53.756;21.140;2023-06-22T07:12:54;100047.50;;;22.79;60.53
64460;BME280;50828;53.756;21.140;2023-06-22T07:18:03;100057.09;;;22.74;60.61
64460;BME280;50828;53.756;21.140;2023-06-22T07:23:10;100061.70;;;22.71;60.68
64460;BME280;50828;53.756;21.140;2023-06-22T07:28:18;100064.11;;;22.68;60.72
64460;BME280;50828;53.756;21.140;2023-06-22T07:33:25;100060.48;;;22.66;60.78
64460;BME280;50828;53.756;21.140;2023-06-22T07:38:33;100059.66;;;22.68;60.72
64460;BME280;50828;53.756;21.140;2023-06-22T07:43:41;100062.10;;;22.68;60.48
64460;BME280;50828;53.756;21.140;2023-06-22T07:48:48;100062.94;;;22.71;60.45
64460;BME280;50828;53.756;21.140;2023-06-22T07:53:59;100054.67;;;22.75;60.47
64460;BME280;50828;53.756;21.140;2023-06-22T07:59:06;100050.23;;;22.80;60.52
64460;BME280;50828;53.756;21.140;2023-06-22T08:04:14;100048.98;;;22.86;60.33
64460;BME280;50828;53.756;21.140;2023-06-22T08:09:22;100053.24;;;22.90;60.26
64460;BME280;50828;53.756;21.140;2023-06-22T08:14:29;100061.95;;;22.96;60.00
64460;BME280;50828;53.756;21.140;2023-06-22T08:19:39;100075.02;;;22.98;59.96
64460;BME280;50828;53.756;21.140;2023-06-22T08:24:46;100085.29;;;23.01;59.69
64460;BME280;50828;53.756;21.140;2023-06-22T08:29:53;100085.67;;;23.05;59.85
64460;BME280;50828;53.756;21.140;2023-06-22T08:35:04;100091.64;;;23.08;59.79
64460;BME280;50828;53.756;21.140;2023-06-22T08:40:13;100095.73;;;23.15;59.48
64460;BME280;50828;53.756;21.140;2023-06-22T08:45:21;100104.80;;;23.21;59.24
64460;BME280;50828;53.756;21.140;2023-06-22T08:50:31;100101.62;;;23.25;59.16
64460;BME280;50828;53.756;21.140;2023-06-22T08:55:39;100101.10;;;23.30;59.11
64460;BME280;50828;53.756;21.140;2023-06-22T09:00:46;100101.38;;;23.37;59.22
64460;BME280;50828;53.756;21.140;2023-06-22T09:05:54;100112.68;;;23.47;59.14
64460;BME280;50828;53.756;21.140;2023-06-22T09:11:01;100113.45;;;23.56;59.02
64460;BME280;50828;53.756;21.140;2023-06-22T09:16:09;100107.44;;;23.64;58.86
64460;BME280;50828;53.756;21.140;2023-06-22T09:21:17;100104.58;;;23.74;58.61
64460;BME280;50828;53.756;21.140;2023-06-22T09:26:25;100100.81;;;23.85;58.46
64460;BME280;50828;53.756;21.140;2023-06-22T09:31:32;100107.32;;;23.97;58.12
64460;BME280;50828;53.756;21.140;2023-06-22T09:36:40;100104.46;;;24.09;57.58
64460;BME280;50828;53.756;21.140;2023-06-22T09:41:48;100110.67;;;24.15;56.92
64460;BME280;50828;53.756;21.140;2023-06-22T09:46:56;100110.67;;;24.21;56.59
64460;BME280;50828;53.756;21.140;2023-06-22T09:52:06;100112.88;;;24.24;56.13
64460;BME280;50828;53.756;21.140;2023-06-22T09:57:14;100104.20;;;24.15;55.51
64460;BME280;50828;53.756;21.140;2023-06-22T10:02:21;100122.16;;;24.17;55.36
64460;BME280;50828;53.756;21.140;2023-06-22T10:07:29;100123.83;;;24.15;54.89
64460;BME280;50828;53.756;21.140;2023-06-22T10:12:40;100116.02;;;24.12;54.38
64460;BME280;50828;53.756;21.140;2023-06-22T10:17:48;100109.77;;;24.11;53.81
64460;BME280;50828;53.756;21.140;2023-06-22T10:22:56;100114.70;;;24.13;53.63
64460;BME280;50828;53.756;21.140;2023-06-22T10:28:05;100109.05;;;24.15;53.75
64460;BME280;50828;53.756;21.140;2023-06-22T10:33:13;100112.92;;;24.22;53.80
64460;BME280;50828;53.756;21.140;2023-06-22T10:38:21;100114.86;;;24.29;53.96
64460;BME280;50828;53.756;21.140;2023-06-22T10:43:29;100117.79;;;24.40;53.60
64460;BME280;50828;53.756;21.140;2023-06-22T10:48:37;100111.73;;;24.50;52.31
64460;BME280;50828;53.756;21.140;2023-06-22T10:53:46;100108.77;;;24.60;51.56
64460;BME280;50828;53.756;21.140;2023-06-22T10:58:53;100106.35;;;24.72;51.06
64460;BME280;50828;53.756;21.140;2023-06-22T11:04:01;100106.55;;;24.83;50.22
64460;BME280;50828;53.756;21.140;2023-06-22T11:09:09;100111.10;;;24.91;49.89
64460;BME280;50828;53.756;21.140;2023-06-22T11:14:30;100105.78;;;25.01;49.28
64460;BME280;50828;53.756;21.140;2023-06-22T11:19:39;100102.75;;;25.13;49.43
64460;BME280;50828;53.756;21.140;2023-06-22T11:24:46;100105.84;;;25.22;48.68
64460;BME280;50828;53.756;21.140;2023-06-22T11:29:54;100106.34;;;25.28;48.24
64460;BME280;50828;53.756;21.140;2023-06-22T11:35:01;100094.19;;;25.36;47.91
64460;BME280;50828;53.756;21.140;2023-06-22T11:40:11;100089.33;;;25.46;47.68
64460;BME280;50828;53.756;21.140;2023-06-22T11:45:19;100082.73;;;25.56;47.61
64460;BME280;50828;53.756;21.140;2023-06-22T11:50:26;100075.91;;;25.64;47.22
64460;BME280;50828;53.756;21.140;2023-06-22T11:55:36;100078.98;;;25.75;47.02
64460;BME280;50828;53.756;21.140;2023-06-22T12:00:44;100082.98;;;25.83;46.36
64460;BME280;50828;53.756;21.140;2023-06-22T12:05:56;100082.89;;;25.93;45.60
64460;BME280;50828;53.756;21.140;2023-06-22T12:11:04;100080.16;;;26.02;45.41
64460;BME280;50828;53.756;21.140;2023-06-22T12:16:11;100077.36;;;26.13;44.30
64460;BME280;50828;53.756;21.140;2023-06-22T12:21:19;100080.50;;;26.22;43.54
64460;BME280;50828;53.756;21.140;2023-06-22T12:26:26;100077.76;;;26.31;42.79
64460;BME280;50828;53.756;21.140;2023-06-22T12:31:33;100079.70;;;26.38;41.26
64460;BME280;50828;53.756;21.140;2023-06-22T12:36:41;100084.91;;;26.42;40.46
64460;BME280;50828;53.756;21.140;2023-06-22T12:41:48;100083.67;;;26.45;40.38
64460;BME280;50828;53.756;21.140;2023-06-22T12:46:55;100083.33;;;26.48;40.66
64460;BME280;50828;53.756;21.140;2023-06-22T12:52:03;100087.20;;;26.52;40.47
64460;BME280;50828;53.756;21.140;2023-06-22T12:57:11;100087.38;;;26.54;40.02
64460;BME280;50828;53.756;21.140;2023-06-22T13:02:18;100084.81;;;26.56;39.79
64460;BME280;50828;53.756;21.140;2023-06-22T13:07:26;100080.67;;;26.60;39.58
64460;BME280;50828;53.756;21.140;2023-06-22T13:12:35;100078.28;;;26.61;39.68
64460;BME280;50828;53.756;21.140;2023-06-22T13:17:42;100079.17;;;26.65;39.71
64460;BME280;50828;53.756;21.140;2023-06-22T13:22:50;100076.33;;;26.66;39.28
64460;BME280;50828;53.756;21.140;2023-06-22T13:27:57;100079.52;;;26.69;38.86
64460;BME280;50828;53.756;21.140;2023-06-22T13:33:07;100080.05;;;26.70;38.38
64460;BME280;50828;53.756;21.140;2023-06-22T13:38:15;100087.51;;;26.71;38.51
64460;BME280;50828;53.756;21.140;2023-06-22T13:43:23;100084.80;;;26.73;38.25
64460;BME280;50828;53.756;21.140;2023-06-22T13:48:31;100086.34;;;26.74;37.79
64460;BME280;50828;53.756;21.140;2023-06-22T13:53:38;100087.86;;;26.73;37.59
64460;BME280;50828;53.756;21.140;2023-06-22T13:58:45;100081.12;;;26.72;37.30
64460;BME280;50828;53.756;21.140;2023-06-22T14:03:53;100080.80;;;26.72;37.04
64460;BME280;50828;53.756;21.140;2023-06-22T14:09:01;100080.73;;;26.69;36.91
64460;BME280;50828;53.756;21.140;2023-06-22T14:14:09;100084.63;;;26.68;36.62
64460;BME280;50828;53.756;21.140;2023-06-22T14:19:16;100083.41;;;26.66;36.63
64460;BME280;50828;53.756;21.140;2023-06-22T14:24:23;100088.10;;;26.64;36.62
64460;BME280;50828;53.756;21.140;2023-06-22T14:29:35;100089.54;;;26.63;36.56
64460;BME280;50828;53.756;21.140;2023-06-22T14:34:42;100099.23;;;26.61;36.63
64460;BME280;50828;53.756;21.140;2023-06-22T14:39:49;100098.84;;;26.59;36.71
64460;BME280;50828;53.756;21.140;2023-06-22T14:44:57;100098.06;;;26.57;36.75
64460;BME280;50828;53.756;21.140;2023-06-22T14:50:06;100095.98;;;26.54;36.55
64460;BME280;50828;53.756;21.140;2023-06-22T14:55:13;100096.39;;;26.52;36.66
64460;BME280;50828;53.756;21.140;2023-06-22T15:00:22;100092.25;;;26.52;36.37
64460;BME280;50828;53.756;21.140;2023-06-22T15:05:29;100090.66;;;26.52;36.13
64460;BME280;50828;53.756;21.140;2023-06-22T15:10:36;100091.17;;;26.52;35.96
64460;BME280;50828;53.756;21.140;2023-06-22T15:15:45;100085.31;;;26.51;35.89
64460;BME280;50828;53.756;21.140;2023-06-22T15:20:52;100079.25;;;26.50;35.78
64460;BME280;50828;53.756;21.140;2023-06-22T15:26:01;100075.02;;;26.48;35.67
64460;BME280;50828;53.756;21.140;2023-06-22T15:31:08;100069.56;;;26.47;35.54
64460;BME280;50828;53.756;21.140;2023-06-22T15:36:16;100067.73;;;26.45;35.57
64460;BME280;50828;53.756;21.140;2023-06-22T15:41:23;100060.77;;;26.45;35.64
64460;BME280;50828;53.756;21.140;2023-06-22T15:46:33;100063.63;;;26.43;35.81
64460;BME280;50828;53.756;21.140;2023-06-22T15:51:41;100064.08;;;26.43;35.91
64460;BME280;50828;53.756;21.140;2023-06-22T15:56:49;100064.41;;;26.41;35.56
64460;BME280;50828;53.756;21.140;2023-06-22T16:01:56;100062.39;;;26.38;35.27
64460;BME280;50828;53.756;21.140;2023-06-22T16:07:05;100058.88;;;26.35;35.20
64460;BME280;50828;53.756;21.140;2023-06-22T16:12:12;100058.15;;;26.32;35.20
64460;BME280;50828;53.756;21.140;2023-06-22T16:17:21;100059.38;;;26.29;35.29
64460;BME280;50828;53.756;21.140;2023-06-22T16:22:28;100053.75;;;26.26;35.22
64460;BME280;50828;53.756;21.140;2023-06-22T16:27:35;100053.29;;;26.24;35.47
64460;BME280;50828;53.756;21.140;2023-06-22T16:32:53;100055.48;;;26.22;34.99
64460;BME280;50828;53.756;21.140;2023-06-22T16:38:04;100059.45;;;26.20;35.04
64460;BME280;50828;53.756;21.140;2023-06-22T16:43:12;100056.69;;;26.17;34.98
64460;BME280;50828;53.756;21.140;2023-06-22T16:48:20;100055.73;;;26.14;34.84
64460;BME280;50828;53.756;21.140;2023-06-22T16:53:27;100045.10;;;26.11;34.80
64460;BME280;50828;53.756;21.140;2023-06-22T16:58:36;100040.92;;;26.06;34.94
64460;BME280;50828;53.756;21.140;2023-06-22T17:03:48;100038.99;;;26.02;35.02
64460;BME280;50828;53.756;21.140;2023-06-22T17:09:00;100037.52;;;25.99;35.23
64460;BME280;50828;53.756;21.140;2023-06-22T17:14:09;100038.89;;;25.94;35.37
64460;BME280;50828;53.756;21.140;2023-06-22T17:19:17;100039.52;;;25.90;35.53
64460;BME280;50828;53.756;21.140;2023-06-22T17:24:26;100029.85;;;25.84;35.55
64460;BME280;50828;53.756;21.140;2023-06-22T17:29:33;100024.92;;;25.79;35.96
64460;BME280;50828;53.756;21.140;2023-06-22T17:34:41;100027.15;;;25.75;36.17
64460;BME280;50828;53.756;21.140;2023-06-22T17:39:52;100019.79;;;25.70;36.30
64460;BME280;50828;53.756;21.140;2023-06-22T17:45:16;100014.89;;;25.63;36.54
64460;BME280;50828;53.756;21.140;2023-06-22T17:50:25;100010.76;;;25.56;36.78
64460;BME280;50828;53.756;21.140;2023-06-22T17:55:34;100008.20;;;25.48;36.94
64460;BME280;50828;53.756;21.140;2023-06-22T18:00:42;100002.88;;;25.40;37.22
64460;BME280;50828;53.756;21.140;2023-06-22T18:05:50;100000.27;;;25.33;37.59
64460;BME280;50828;53.756;21.140;2023-06-22T18:10:58;99993.66;;;25.23;37.80
64460;BME280;50828;53.756;21.140;2023-06-22T18:16:08;99991.13;;;25.14;37.95
64460;BME280;50828;53.756;21.140;2023-06-22T18:21:17;99988.44;;;25.05;38.20
64460;BME280;50828;53.756;21.140;2023-06-22T18:26:25;99985.89;;;24.97;38.47
64460;BME280;50828;53.756;21.140;2023-06-22T18:31:32;99983.10;;;24.87;38.69
64460;BME280;50828;53.756;21.140;2023-06-22T18:36:43;99978.95;;;24.77;39.08
64460;BME280;50828;53.756;21.140;2023-06-22T18:41:53;99973.30;;;24.67;39.63
64460;BME280;50828;53.756;21.140;2023-06-22T18:47:04;99969.55;;;24.56;40.38
64460;BME280;50828;53.756;21.140;2023-06-22T18:52:16;99969.56;;;24.47;40.74
64460;BME280;50828;53.756;21.140;2023-06-22T18:57:25;99978.34;;;24.41;41.12
64460;BME280;50828;53.756;21.140;2023-06-22T19:02:58;99980.13;;;24.33;41.42
64460;BME280;50828;53.756;21.140;2023-06-22T19:08:06;99985.10;;;24.20;41.89
64460;BME280;50828;53.756;21.140;2023-06-22T19:13:29;99984.27;;;24.06;42.24
64460;BME280;50828;53.756;21.140;2023-06-22T19:18:37;99987.80;;;23.86;42.21
64460;BME280;50828;53.756;21.140;2023-06-22T19:23:46;99989.40;;;23.65;42.52
64460;BME280;50828;53.756;21.140;2023-06-22T19:28:54;99984.73;;;23.43;42.37
64460;BME280;50828;53.756;21.140;2023-06-22T19:34:04;99987.08;;;23.20;42.24
64460;BME280;50828;53.756;21.140;2023-06-22T19:39:12;99988.25;;;22.96;42.48
64460;BME280;50828;53.756;21.140;2023-06-22T19:44:20;99984.51;;;22.71;42.94
64460;BME280;50828;53.756;21.140;2023-06-22T19:49:27;99985.59;;;22.45;43.25
64460;BME280;50828;53.756;21.140;2023-06-22T19:54:34;99984.16;;;22.21;43.47
64460;BME280;50828;53.756;21.140;2023-06-22T19:59:42;99984.83;;;21.96;43.66
64460;BME280;50828;53.756;21.140;2023-06-22T20:04:51;99984.05;;;21.71;43.76
64460;BME280;50828;53.756;21.140;2023-06-22T20:10:10;99991.45;;;21.46;44.36
64460;BME280;50828;53.756;21.140;2023-06-22T20:15:26;99992.29;;;21.21;44.89
64460;BME280;50828;53.756;21.140;2023-06-22T20:20:34;99988.06;;;20.97;44.94
64460;BME280;50828;53.756;21.140;2023-06-22T20:25:42;99990.09;;;20.76;45.20
64460;BME280;50828;53.756;21.140;2023-06-22T20:31:11;99998.17;;;20.54;45.42
64460;BME280;50828;53.756;21.140;2023-06-22T20:36:18;99992.75;;;20.31;45.78
64460;BME280;50828;53.756;21.140;2023-06-22T20:41:29;99997.69;;;20.10;46.27
64460;BME280;50828;53.756;21.140;2023-06-22T20:46:37;99993.05;;;19.90;46.75
64460;BME280;50828;53.756;21.140;2023-06-22T20:51:44;99985.63;;;19.71;47.19
64460;BME280;50828;53.756;21.140;2023-06-22T20:56:52;99994.71;;;19.53;47.73
64460;BME280;50828;53.756;21.140;2023-06-22T21:01:59;99995.63;;;19.37;48.02
64460;BME280;50828;53.756;21.140;2023-06-22T21:07:07;99985.35;;;19.17;47.67
64460;BME280;50828;53.756;21.140;2023-06-22T21:12:14;99978.08;;;19.03;47.83
64460;BME280;50828;53.756;21.140;2023-06-22T21:17:22;99967.55;;;18.85;48.13
64460;BME280;50828;53.756;21.140;2023-06-22T21:22:32;99960.30;;;18.67;48.50
64460;BME280;50828;53.756;21.140;2023-06-22T21:27:40;99959.45;;;18.50;48.88
64460;BME280;50828;53.756;21.140;2023-06-22T21:32:48;99959.01;;;18.34;49.29
64460;BME280;50828;53.756;21.140;2023-06-22T21:37:56;99949.72;;;18.20;49.66
64460;BME280;50828;53.756;21.140;2023-06-22T21:43:04;99941.73;;;18.08;49.73
64460;BME280;50828;53.756;21.140;2023-06-22T21:48:12;99950.27;;;17.96;49.95
64460;BME280;50828;53.756;21.140;2023-06-22T21:53:19;99967.96;;;17.85;50.44
64460;BME280;50828;53.756;21.140;2023-06-22T21:58:26;99968.45;;;17.76;50.14
64460;BME280;50828;53.756;21.140;2023-06-22T22:03:34;99965.15;;;17.65;50.40
64460;BME280;50828;53.756;21.140;2023-06-22T22:08:41;99960.52;;;17.50;50.85
64460;BME280;50828;53.756;21.140;2023-06-22T22:13:48;99961.36;;;17.40;50.92
64460;BME280;50828;53.756;21.140;2023-06-22T22:18:56;99952.33;;;17.30;51.04
64460;BME280;50828;53.756;21.140;2023-06-22T22:24:04;99945.14;;;17.18;51.33
64460;BME280;50828;53.756;21.140;2023-06-22T22:29:15;99942.63;;;17.06;51.22
64460;BME280;50828;53.756;21.140;2023-06-22T22:34:22;99942.02;;;16.97;51.41
64460;BME280;50828;53.756;21.140;2023-06-22T22:39:35;99956.70;;;16.84;51.37
64460;BME280;50828;53.756;21.140;2023-06-22T22:44:44;99957.02;;;16.72;51.15
64460;BME280;50828;53.756;21.140;2023-06-22T22:49:52;99954.45;;;16.60;50.83
64460;BME280;50828;53.756;21.140;2023-06-22T22:54:59;99959.23;;;16.47;51.51
64460;BME280;50828;53.756;21.140;2023-06-22T23:00:09;99953.42;;;16.33;52.08
64460;BME280;50828;53.756;21.140;2023-06-22T23:05:18;99955.64;;;16.23;52.59
64460;BME280;50828;53.756;21.140;2023-06-22T23:10:25;99963.05;;;16.13;53.17
64460;BME280;50828;53.756;21.140;2023-06-22T23:15:33;99959.55;;;16.05;53.08
64460;BME280;50828;53.756;21.140;2023-06-22T23:20:41;99956.05;;;15.95;52.88
64460;BME280;50828;53.756;21.140;2023-06-22T23:25:48;99955.45;;;15.86;53.38
64460;BME280;50828;53.756;21.140;2023-06-22T23:30:56;99960.29;;;15.76;53.13
64460;BME280;50828;53.756;21.140;2023-06-22T23:36:04;99957.20;;;15.68;53.41
64460;BME280;50828;53.756;21.140;2023-06-22T23:41:12;99953.71;;;15.59;53.78
64460;BME280;50828;53.756;21.140;2023-06-22T23:46:19;99951.66;;;15.52;53.85
64460;BME280;50828;53.756;21.140;2023-06-22T23:51:27;99945.23;;;15.45;53.75
64460;BME280;50828;53.756;21.140;2023-06-22T23:56:35;99943.67;;;15.38;53.64
